Time;durP1;ratioP1;P1;durP2;ratioP2;P2;SDS_P1;SDS_P2;PMS_P1;PMS_P2;Temp;Humidity;BMP_temperature;BMP_pressure;BME280_temperature;BME280_humidity;BME280_pressure;Samples;Min_cycle;Max_cycle;Signal;HPM_P1;HPM_P2
2021/01/25 00:01:45;;;;;;;7.68;5.15;;;2.50;98.30;;;;;;5077404;23;20207;-78
2021/01/25 00:03:47;;;;;;;7.10;5.10;;;2.60;98.30;;;;;;5079779;23;20398;-78
2021/01/25 00:05:50;;;;;;;7.70;5.05;;;2.50;98.30;;;;;;5081454;23;20275;-78
2021/01/25 00:07:53;;;;;;;7.15;5.50;;;2.50;98.30;;;;;;5078144;23;20208;-78
2021/01/25 00:09:55;;;;;;;9.45;5.80;;;2.60;98.30;;;;;;5084655;23;20200;-77
2021/01/25 00:11:57;;;;;;;10.25;6.28;;;2.50;98.30;;;;;;5083703;23;20782;-78
2021/01/25 00:13:59;;;;;;;9.27;6.30;;;2.50;98.30;;;;;;5083862;23;20200;-78
2021/01/25 00:16:02;;;;;;;11.65;7.80;;;2.50;98.30;;;;;;5084327;23;20238;-78
2021/01/25 00:18:04;;;;;;;11.13;7.18;;;2.40;98.30;;;;;;5084340;23;20200;-78
2021/01/25 00:20:08;;;;;;;14.38;8.55;;;2.40;98.30;;;;;;5081652;23;20215;-78
2021/01/25 00:22:11;;;;;;;14.93;9.38;;;2.30;98.30;;;;;;5070865;23;20244;-78
2021/01/25 00:24:13;;;;;;;11.48;7.72;;;2.40;98.30;;;;;;5082984;23;20267;-79
2021/01/25 00:26:15;;;;;;;14.95;9.77;;;2.40;98.30;;;;;;5085440;23;20232;-78
2021/01/25 00:28:17;;;;;;;15.65;10.02;;;2.40;98.30;;;;;;5086309;23;20227;-78
2021/01/25 00:30:20;;;;;;;14.05;9.23;;;2.40;98.30;;;;;;5086155;23;20200;-79
2021/01/25 00:32:22;;;;;;;17.30;10.75;;;2.40;98.30;;;;;;5085184;23;20208;-77
2021/01/25 00:34:25;;;;;;;17.48;11.27;;;2.40;98.30;;;;;;5084085;23;20246;-78
2021/01/25 00:36:27;;;;;;;15.18;10.75;;;2.50;98.30;;;;;;5083308;23;20955;-78
2021/01/25 00:38:30;;;;;;;17.50;11.25;;;2.50;98.30;;;;;;5083942;23;20265;-79
2021/01/25 00:40:32;;;;;;;14.63;9.73;;;2.50;98.30;;;;;;5084660;23;20228;-78
2021/01/25 00:42:34;;;;;;;16.30;11.00;;;2.50;98.30;;;;;;5077168;23;20542;-79
2021/01/25 00:44:36;;;;;;;17.13;11.15;;;2.40;98.30;;;;;;5085411;23;20764;-78
2021/01/25 00:46:38;;;;;;;17.40;11.23;;;2.50;98.30;;;;;;5075327;23;20268;-79
2021/01/25 00:48:41;;;;;;;16.30;11.27;;;2.50;98.30;;;;;;5083634;23;20279;-78
2021/01/25 00:50:43;;;;;;;20.05;11.30;;;2.50;98.30;;;;;;5081927;23;21046;-78
2021/01/25 00:52:45;;;;;;;13.55;10.13;;;2.50;98.30;;;;;;5081513;23;20208;-78
2021/01/25 00:54:48;;;;;;;15.20;10.20;;;2.50;98.30;;;;;;5081472;23;20212;-77
2021/01/25 00:56:50;;;;;;;13.95;10.23;;;2.50;98.30;;;;;;5081914;23;20680;-79
2021/01/25 00:58:52;;;;;;;12.98;9.73;;;2.50;98.30;;;;;;5081083;23;20206;-78
2021/01/25 01:00:54;;;;;;;15.20;10.32;;;2.40;98.30;;;;;;5082114;23;20208;-78
2021/01/25 01:02:56;;;;;;;13.23;8.73;;;2.40;98.30;;;;;;5081369;23;20204;-78
2021/01/25 01:04:59;;;;;;;14.20;10.02;;;2.60;98.30;;;;;;5073397;23;20220;-78
2021/01/25 01:07:01;;;;;;;16.02;10.45;;;2.50;98.30;;;;;;5081701;23;20204;-79
2021/01/25 01:09:03;;;;;;;13.98;10.95;;;2.50;98.30;;;;;;5083556;23;20284;-78
2021/01/25 01:11:10;;;;;;;15.10;10.57;;;2.60;98.30;;;;;;5084693;23;20568;-79
2021/01/25 01:13:13;;;;;;;16.38;9.98;;;2.60;98.30;;;;;;5083816;23;20208;-78
2021/01/25 01:15:16;;;;;;;15.18;11.15;;;2.60;98.30;;;;;;5084187;23;20200;-78
2021/01/25 01:17:18;;;;;;;12.68;8.40;;;2.60;98.30;;;;;;5075823;23;20251;-78
2021/01/25 01:19:30;;;;;;;14.10;10.00;;;2.60;98.30;;;;;;5083768;23;20196;-78
2021/01/25 01:21:32;;;;;;;13.00;9.95;;;2.60;98.30;;;;;;5084678;23;20212;-78
2021/01/25 01:23:37;;;;;;;15.07;11.50;;;2.50;98.30;;;;;;5076058;23;20212;-79
2021/01/25 01:25:39;;;;;;;15.88;11.65;;;2.60;98.30;;;;;;5081961;23;20208;-79
2021/01/25 01:27:42;;;;;;;15.48;12.38;;;2.60;98.30;;;;;;5083678;23;20204;-79
2021/01/25 01:29:44;;;;;;;13.77;11.23;;;2.60;98.30;;;;;;5083060;23;20227;-79
2021/01/25 01:31:46;;;;;;;13.02;9.73;;;2.50;98.30;;;;;;5082831;23;20212;-79
2021/01/25 01:33:49;;;;;;;19.02;10.13;;;2.60;98.30;;;;;;5083765;23;20211;-79
2021/01/25 01:35:51;;;;;;;17.02;13.13;;;2.60;98.30;;;;;;5083151;23;20206;-79
2021/01/25 01:37:53;;;;;;;15.18;11.43;;;2.60;98.30;;;;;;5074558;23;20228;-79
2021/01/25 01:39:55;;;;;;;14.23;11.85;;;2.70;98.30;;;;;;5082571;23;20255;-78
2021/01/25 01:42:00;;;;;;;15.85;11.60;;;2.60;98.30;;;;;;5081374;23;20208;-78
2021/01/25 01:44:04;;;;;;;18.92;12.95;;;2.50;98.30;;;;;;5082439;23;20874;-79
2021/01/25 01:46:07;;;;;;;16.20;12.70;;;2.50;98.30;;;;;;5082396;23;20544;-79
2021/01/25 01:48:10;;;;;;;13.65;11.30;;;2.50;98.30;;;;;;5082034;23;20283;-78
2021/01/25 01:50:13;;;;;;;12.38;10.80;;;2.50;98.30;;;;;;5081645;23;20208;-79
2021/01/25 01:52:18;;;;;;;15.23;11.35;;;2.40;98.30;;;;;;5081375;23;20282;-78
2021/01/25 01:54:21;;;;;;;14.55;10.65;;;2.30;98.30;;;;;;5080052;23;20256;-78
2021/01/25 01:56:26;;;;;;;14.20;11.63;;;2.30;98.30;;;;;;5080574;23;20208;-79
2021/01/25 01:58:29;;;;;;;15.02;13.18;;;2.30;98.30;;;;;;5081865;23;20211;-79
2021/01/25 02:00:32;;;;;;;15.82;10.35;;;2.30;98.30;;;;;;5084618;23;20199;-78
2021/01/25 02:02:34;;;;;;;15.95;12.25;;;2.30;98.30;;;;;;5076328;23;20219;-79
2021/01/25 02:04:38;;;;;;;14.88;12.38;;;2.30;98.30;;;;;;5086515;23;20236;-79
2021/01/25 02:06:42;;;;;;;16.88;13.93;;;2.30;98.30;;;;;;5076460;23;20209;-79
2021/01/25 02:08:45;;;;;;;16.65;13.13;;;2.30;98.30;;;;;;5084249;23;20227;-78
2021/01/25 02:10:49;;;;;;;15.45;12.02;;;2.30;98.30;;;;;;5085321;23;20532;-79
2021/01/25 02:12:56;;;;;;;16.65;12.60;;;2.30;98.30;;;;;;5077017;23;20845;-79
2021/01/25 02:14:59;;;;;;;16.55;12.10;;;2.20;98.30;;;;;;5083199;23;20255;-79
2021/01/25 02:17:03;;;;;;;14.40;12.90;;;2.30;98.30;;;;;;5085045;23;20265;-79
2021/01/25 02:19:08;;;;;;;14.57;13.07;;;2.20;98.30;;;;;;5084862;23;20263;-79
2021/01/25 02:21:12;;;;;;;14.32;11.77;;;2.30;98.30;;;;;;5085785;23;20227;-79
2021/01/25 02:23:49;;;;;;;12.60;11.30;;;2.30;98.30;;;;;;5084646;23;20223;-78
2021/01/25 02:25:59;;;;;;;14.27;11.98;;;2.30;98.30;;;;;;5062659;23;20239;-78
2021/01/25 02:28:03;;;;;;;15.45;12.45;;;2.20;98.30;;;;;;5083055;23;20315;-79
2021/01/25 02:30:07;;;;;;;14.85;12.27;;;2.20;98.30;;;;;;5082685;23;20235;-79
2021/01/25 02:32:11;;;;;;;13.93;11.93;;;2.20;98.30;;;;;;5081237;23;20254;-78
2021/01/25 02:34:15;;;;;;;15.80;12.35;;;2.20;98.30;;;;;;5082030;23;20620;-78
2021/01/25 02:36:18;;;;;;;13.10;11.60;;;2.30;98.30;;;;;;5082555;23;20723;-78
2021/01/25 02:38:21;;;;;;;15.10;12.75;;;2.20;98.30;;;;;;5081263;23;20207;-79
2021/01/25 02:40:26;;;;;;;14.35;12.25;;;2.20;98.30;;;;;;5073819;23;20684;-78
2021/01/25 02:42:31;;;;;;;14.57;12.35;;;2.30;98.30;;;;;;5082590;23;20235;-78
2021/01/25 02:44:35;;;;;;;14.82;11.65;;;2.30;98.30;;;;;;5081332;23;20255;-78
2021/01/25 02:46:38;;;;;;;14.63;11.65;;;2.30;98.30;;;;;;5081582;23;20231;-78
2021/01/25 02:48:40;;;;;;;13.70;11.90;;;2.30;98.30;;;;;;5082070;23;20200;-78
2021/01/25 02:50:49;;;;;;;15.90;13.32;;;2.30;98.30;;;;;;5080495;23;20255;-78
2021/01/25 02:52:51;;;;;;;15.45;11.65;;;2.30;98.30;;;;;;5083396;23;20957;-78
2021/01/25 02:54:56;;;;;;;14.30;12.15;;;2.30;98.30;;;;;;5083175;23;20693;-79
2021/01/25 02:56:59;;;;;;;14.32;11.80;;;2.30;98.30;;;;;;5073761;23;20204;-78
2021/01/25 02:59:01;;;;;;;15.90;12.63;;;2.30;98.30;;;;;;5082215;23;20232;-78
2021/01/25 03:01:04;;;;;;;15.82;13.85;;;2.30;98.30;;;;;;5082586;23;20707;-78
2021/01/25 03:03:07;;;;;;;16.45;13.07;;;2.30;98.30;;;;;;5080985;23;20210;-78
2021/01/25 03:05:12;;;;;;;15.35;12.60;;;2.30;98.30;;;;;;5082378;23;20660;-78
2021/01/25 03:07:15;;;;;;;18.52;13.15;;;2.30;98.30;;;;;;5082458;23;20208;-79
2021/01/25 03:09:17;;;;;;;14.75;12.02;;;2.30;98.30;;;;;;5081194;23;20204;-78
2021/01/25 03:11:19;;;;;;;16.73;14.20;;;2.40;98.30;;;;;;5083271;23;20200;-78
2021/01/25 03:13:25;;;;;;;15.30;11.93;;;2.40;98.30;;;;;;5083371;23;20207;-78
2021/01/25 03:15:29;;;;;;;14.52;12.98;;;2.60;98.30;;;;;;5083904;23;20680;-79
2021/01/25 03:17:32;;;;;;;17.67;13.05;;;2.60;98.30;;;;;;5084286;23;20593;-78
2021/01/25 03:19:35;;;;;;;15.25;11.93;;;2.60;98.30;;;;;;5083725;23;20268;-79
2021/01/25 03:21:44;;;;;;;15.20;12.32;;;2.70;98.30;;;;;;5083549;23;20208;-79
2021/01/25 03:23:46;;;;;;;14.10;10.55;;;2.70;98.30;;;;;;5084559;23;20203;-79
2021/01/25 03:25:49;;;;;;;13.27;10.90;;;2.70;98.30;;;;;;5082822;23;20287;-79
2021/01/25 03:27:51;;;;;;;12.85;10.48;;;2.70;98.30;;;;;;5082515;23;20287;-78
2021/01/25 03:29:54;;;;;;;14.23;10.90;;;2.60;98.30;;;;;;5081178;23;20232;-78
2021/01/25 03:31:59;;;;;;;14.93;10.70;;;2.60;98.30;;;;;;5074733;23;20551;-79
2021/01/25 03:34:02;;;;;;;11.60;10.40;;;2.70;98.30;;;;;;5083218;23;20223;-79
2021/01/25 03:36:09;;;;;;;11.00;9.13;;;2.70;98.30;;;;;;5083153;23;20208;-79
2021/01/25 03:38:11;;;;;;;10.95;8.80;;;2.70;98.30;;;;;;5081982;23;20268;-78
2021/01/25 03:40:18;;;;;;;12.02;9.52;;;2.70;98.30;;;;;;5078329;23;20811;-78
2021/01/25 03:42:20;;;;;;;10.30;8.15;;;2.60;98.30;;;;;;5074278;23;20231;-78
2021/01/25 03:44:23;;;;;;;10.63;8.80;;;2.60;98.30;;;;;;5074103;23;20571;-78
2021/01/25 03:46:25;;;;;;;12.55;7.45;;;2.70;98.30;;;;;;5065629;23;20216;-78
2021/01/25 03:48:27;;;;;;;13.00;10.45;;;2.60;98.30;;;;;;5065858;23;20700;-78
2021/01/25 03:50:34;;;;;;;13.57;9.70;;;2.60;98.30;;;;;;5073430;23;20207;-78
2021/01/25 03:52:37;;;;;;;12.60;8.73;;;2.60;98.30;;;;;;5073867;23;20196;-78
2021/01/25 03:54:42;;;;;;;11.95;8.80;;;2.50;98.30;;;;;;5065794;23;20211;-78
2021/01/25 03:56:44;;;;;;;10.70;9.35;;;2.50;98.30;;;;;;5073624;23;20211;-77
2021/01/25 03:58:49;;;;;;;11.13;9.60;;;2.50;98.30;;;;;;5073497;23;20196;-77
2021/01/25 04:00:51;;;;;;;11.98;8.73;;;2.50;98.30;;;;;;5073718;23;20196;-78
2021/01/25 04:02:56;;;;;;;11.73;9.10;;;2.60;98.30;;;;;;5073645;23;20536;-78
2021/01/25 04:04:59;;;;;;;12.48;9.95;;;2.50;98.30;;;;;;5074008;23;20825;-77
2021/01/25 04:07:02;;;;;;;12.82;10.00;;;2.40;98.30;;;;;;5065697;23;20208;-78
2021/01/25 04:09:04;;;;;;;13.32;10.43;;;2.40;98.30;;;;;;5073559;23;20204;-78
2021/01/25 04:11:07;;;;;;;12.80;10.23;;;2.30;98.30;;;;;;5074029;23;20200;-78
2021/01/25 04:13:09;;;;;;;12.57;10.90;;;2.30;98.30;;;;;;5074083;23;20203;-77
2021/01/25 04:15:11;;;;;;;15.77;12.52;;;2.20;98.30;;;;;;5066019;23;20296;-78
2021/01/25 04:17:18;;;;;;;14.80;11.82;;;2.20;98.30;;;;;;5073671;23;20200;-78
2021/01/25 04:19:21;;;;;;;14.02;12.25;;;2.20;98.30;;;;;;5073219;23;20204;-78
2021/01/25 04:21:30;;;;;;;14.50;12.98;;;2.10;98.30;;;;;;5072348;23;20204;-78
2021/01/25 04:23:33;;;;;;;16.00;14.30;;;2.20;98.30;;;;;;5072782;23;20270;-77
2021/01/25 04:25:35;;;;;;;18.38;15.13;;;2.10;98.30;;;;;;5072619;23;20208;-78
2021/01/25 04:27:40;;;;;;;16.35;13.25;;;2.10;98.30;;;;;;5073849;23;20228;-77
2021/01/25 04:29:46;;;;;;;18.70;15.00;;;2.10;98.30;;;;;;5073707;23;20201;-78
2021/01/25 04:31:51;;;;;;;18.75;14.85;;;2.00;98.30;;;;;;5073826;23;20216;-78
2021/01/25 04:33:54;;;;;;;21.17;14.73;;;2.00;98.30;;;;;;5066153;23;20657;-79
2021/01/25 04:35:59;;;;;;;22.50;14.95;;;2.10;98.30;;;;;;5073935;23;20206;-79
2021/01/25 04:38:05;;;;;;;23.77;16.70;;;2.10;98.30;;;;;;5066088;23;20270;-78
2021/01/25 04:40:11;;;;;;;23.05;15.88;;;2.10;98.30;;;;;;5073777;23;20243;-78
2021/01/25 04:42:13;;;;;;;18.85;15.07;;;2.10;98.30;;;;;;5073523;23;20283;-78
2021/01/25 04:44:23;;;;;;;20.10;15.40;;;2.20;98.30;;;;;;5076005;23;20219;-77
2021/01/25 04:46:30;;;;;;;23.02;14.48;;;2.20;98.30;;;;;;5068218;23;20212;-77
2021/01/25 04:48:36;;;;;;;22.02;15.70;;;2.20;98.30;;;;;;5076598;23;20203;-78
2021/01/25 04:50:39;;;;;;;21.60;15.82;;;2.20;98.30;;;;;;5075058;23;20220;-78
2021/01/25 04:52:50;;;;;;;17.88;14.05;;;2.20;98.30;;;;;;5067379;23;20204;-78
2021/01/25 04:54:53;;;;;;;18.55;13.30;;;2.30;98.30;;;;;;5066924;23;20208;-78
2021/01/25 04:56:59;;;;;;;17.92;13.88;;;2.20;98.30;;;;;;5075496;23;20600;-78
2021/01/25 04:59:04;;;;;;;19.80;14.43;;;2.20;98.30;;;;;;5075048;23;20320;-79
2021/01/25 05:01:12;;;;;;;18.88;14.77;;;2.20;98.30;;;;;;5074868;23;20215;-78
2021/01/25 05:03:15;;;;;;;22.20;14.02;;;2.20;98.30;;;;;;5075279;23;20250;-78
2021/01/25 05:05:22;;;;;;;18.20;13.35;;;2.20;98.30;;;;;;5075056;23;20214;-79
2021/01/25 05:07:24;;;;;;;23.02;16.02;;;2.20;98.30;;;;;;5066726;23;20204;-78
2021/01/25 05:09:30;;;;;;;20.20;15.02;;;2.30;98.30;;;;;;5074965;23;20263;-78
2021/01/25 05:11:36;;;;;;;22.25;13.88;;;2.30;98.30;;;;;;5067203;23;20204;-78
2021/01/25 05:13:45;;;;;;;18.75;13.60;;;2.30;98.30;;;;;;5074939;23;20195;-79
2021/01/25 05:15:55;;;;;;;21.08;15.05;;;2.30;98.30;;;;;;5074928;23;20214;-78
2021/01/25 05:18:06;;;;;;;20.85;12.45;;;2.40;98.30;;;;;;5066776;23;20208;-78
2021/01/25 05:20:09;;;;;;;73.07;41.03;;;2.40;98.30;;;;;;5075176;23;20195;-78
2021/01/25 05:22:16;;;;;;;22.63;13.82;;;2.40;98.30;;;;;;5066841;23;20223;-78
2021/01/25 05:24:20;;;;;;;18.52;13.07;;;2.40;98.30;;;;;;5075496;23;20221;-77
2021/01/25 05:26:23;;;;;;;17.45;12.80;;;2.30;98.30;;;;;;5075707;23;20214;-78
2021/01/25 05:28:27;;;;;;;21.45;14.50;;;2.30;98.30;;;;;;5075287;23;20236;-78
2021/01/25 05:30:33;;;;;;;27.23;16.38;;;2.20;98.30;;;;;;5074404;23;20207;-78
2021/01/25 05:32:47;;;;;;;113.50;63.75;;;2.30;98.30;;;;;;5074832;23;20247;-78
2021/01/25 05:35:01;;;;;;;54.30;28.92;;;2.20;98.30;;;;;;5066525;23;20250;-78
2021/01/25 05:37:14;;;;;;;36.10;22.23;;;2.30;98.30;;;;;;5075054;23;20223;-78
2021/01/25 05:39:18;;;;;;;22.25;15.13;;;2.30;98.30;;;;;;5074568;23;20946;-78
2021/01/25 05:41:21;;;;;;;20.88;14.85;;;2.30;98.30;;;;;;5074819;23;20736;-78
2021/01/25 05:43:32;;;;;;;23.17;15.80;;;2.30;98.30;;;;;;5065966;23;20213;-78
2021/01/25 05:45:41;;;;;;;20.92;14.40;;;2.30;98.30;;;;;;5074642;23;20204;-78
2021/01/25 05:47:52;;;;;;;34.45;25.40;;;2.40;98.30;;;;;;5074605;23;20286;-78
2021/01/25 05:50:04;;;;;;;69.30;41.00;;;2.40;98.30;;;;;;5067469;23;20212;-78
2021/01/25 05:52:18;;;;;;;72.72;43.72;;;2.40;98.30;;;;;;5074633;23;20226;-78
2021/01/25 05:54:28;;;;;;;44.78;26.70;;;2.40;98.30;;;;;;5074953;23;20204;-78
2021/01/25 05:56:55;;;;;;;24.88;16.45;;;2.50;98.30;;;;;;5074831;23;20207;-78
2021/01/25 05:59:00;;;;;;;20.38;14.90;;;2.60;98.30;;;;;;5074877;23;20773;-78
2021/01/25 06:01:08;;;;;;;20.35;14.65;;;2.50;98.30;;;;;;5074210;23;20231;-77
2021/01/25 06:03:13;;;;;;;20.25;14.85;;;2.50;98.30;;;;;;5074060;23;20208;-78
2021/01/25 06:05:25;;;;;;;22.85;16.02;;;2.60;98.30;;;;;;5074860;23;20766;-77
2021/01/25 06:07:28;;;;;;;20.70;15.40;;;2.70;98.30;;;;;;5066779;23;20239;-78
2021/01/25 06:09:45;;;;;;;21.88;12.88;;;2.70;98.30;;;;;;5074402;23;20200;-77
2021/01/25 06:11:48;;;;;;;19.05;14.40;;;2.60;98.30;;;;;;5074906;23;20207;-77
2021/01/25 06:13:55;;;;;;;18.02;13.38;;;2.50;98.30;;;;;;5074273;23;20298;-78
2021/01/25 06:15:59;;;;;;;20.13;13.98;;;2.50;98.30;;;;;;5066746;23;20283;-77
2021/01/25 06:18:02;;;;;;;20.98;13.88;;;2.40;98.30;;;;;;5074559;23;20279;-78
2021/01/25 06:20:07;;;;;;;19.77;14.18;;;2.30;98.30;;;;;;5074231;23;20532;-77
2021/01/25 06:22:13;;;;;;;22.02;12.85;;;2.30;98.30;;;;;;5074137;23;20210;-77
2021/01/25 06:24:19;;;;;;;21.55;14.18;;;2.40;98.30;;;;;;5074289;23;20208;-78
2021/01/25 06:26:24;;;;;;;37.17;19.90;;;2.40;98.30;;;;;;5075111;23;20204;-78
2021/01/25 06:28:28;;;;;;;22.23;15.05;;;2.50;98.30;;;;;;5074625;23;20207;-77
2021/01/25 06:30:32;;;;;;;16.45;12.70;;;2.50;98.30;;;;;;5074151;23;20200;-77
2021/01/25 06:32:44;;;;;;;18.38;13.05;;;2.50;98.30;;;;;;5074020;23;20208;-78
2021/01/25 06:34:48;;;;;;;19.70;13.50;;;2.50;98.30;;;;;;5074304;23;20200;-79
2021/01/25 06:37:02;;;;;;;23.77;15.35;;;2.60;98.30;;;;;;5074470;23;20200;-78
2021/01/25 06:39:05;;;;;;;18.35;12.45;;;2.60;98.30;;;;;;5074023;23;20291;-78
2021/01/25 06:41:12;;;;;;;25.10;13.45;;;2.70;98.30;;;;;;5074168;23;20283;-78
2021/01/25 06:43:19;;;;;;;18.25;13.43;;;2.70;98.30;;;;;;5066410;23;20309;-78
2021/01/25 06:45:34;;;;;;;22.27;13.05;;;2.60;98.30;;;;;;5066322;23;20557;-78
2021/01/25 06:47:40;;;;;;;21.60;14.15;;;2.60;98.30;;;;;;5074438;23;20196;-78
2021/01/25 06:49:45;;;;;;;17.52;13.15;;;2.60;98.30;;;;;;5074123;23;20287;-78
2021/01/25 06:51:55;;;;;;;18.98;13.38;;;2.60;98.30;;;;;;5074722;23;20204;-78
2021/01/25 06:54:01;;;;;;;18.80;13.40;;;2.60;98.30;;;;;;5074161;23;20204;-78
2021/01/25 06:56:06;;;;;;;21.90;13.82;;;2.60;98.30;;;;;;5075120;23;20628;-78
2021/01/25 06:58:17;;;;;;;19.50;15.02;;;2.60;98.30;;;;;;5066249;23;20208;-77
2021/01/25 07:00:20;;;;;;;19.95;12.90;;;2.60;98.30;;;;;;5073968;23;20656;-78
2021/01/25 07:02:26;;;;;;;20.20;13.38;;;2.50;98.30;;;;;;5073984;23;20221;-77
2021/01/25 07:04:49;;;;;;;17.33;11.55;;;2.60;98.30;;;;;;5073970;23;20232;-78
2021/01/25 07:06:53;;;;;;;22.25;14.90;;;2.60;98.30;;;;;;5074054;23;20244;-78
2021/01/25 07:09:04;;;;;;;19.13;12.68;;;2.60;98.30;;;;;;5065963;23;20221;-78
2021/01/25 07:11:07;;;;;;;19.95;13.68;;;2.70;98.30;;;;;;5074133;23;20219;-77
2021/01/25 07:13:09;;;;;;;24.77;16.52;;;2.80;98.30;;;;;;5073907;23;20203;-77
2021/01/25 07:15:14;;;;;;;20.77;13.35;;;2.80;98.30;;;;;;5074321;23;20208;-77
2021/01/25 07:17:18;;;;;;;20.73;12.98;;;2.80;98.30;;;;;;5073976;23;20583;-77
2021/01/25 07:19:20;;;;;;;22.27;13.27;;;2.80;98.30;;;;;;5074245;23;20204;-77
2021/01/25 07:21:26;;;;;;;19.13;14.90;;;2.80;98.30;;;;;;5073696;23;20208;-78
2021/01/25 07:23:30;;;;;;;22.92;16.13;;;2.80;98.30;;;;;;5074217;23;20216;-77
2021/01/25 07:25:34;;;;;;;22.08;16.23;;;2.70;98.30;;;;;;5074000;23;20200;-77
2021/01/25 07:27:36;;;;;;;20.20;15.07;;;2.60;98.30;;;;;;5073825;23;20208;-77
2021/01/25 07:29:40;;;;;;;18.30;11.13;;;2.60;98.30;;;;;;5073287;23;20215;-78
2021/01/25 07:31:48;;;;;;;19.73;15.73;;;2.50;98.30;;;;;;5065560;23;20271;-78
2021/01/25 07:33:55;;;;;;;21.13;14.60;;;2.40;98.30;;;;;;5074123;23;20255;-78
2021/01/25 07:35:59;;;;;;;21.08;14.35;;;2.30;98.30;;;;;;5073795;23;20966;-78
2021/01/25 07:38:09;;;;;;;19.52;15.20;;;2.30;98.30;;;;;;5073965;23;20196;-78
2021/01/25 07:40:22;;;;;;;21.23;15.70;;;2.40;98.30;;;;;;5073604;23;20200;-78
2021/01/25 07:42:33;;;;;;;21.90;13.02;;;2.40;98.30;;;;;;5074033;23;20279;-78
2021/01/25 07:44:39;;;;;;;20.75;14.27;;;2.50;98.30;;;;;;5066165;23;20212;-78
2021/01/25 07:46:47;;;;;;;19.20;13.27;;;2.50;98.30;;;;;;5074529;23;20203;-78
2021/01/25 07:48:51;;;;;;;20.23;14.50;;;2.40;98.30;;;;;;5074048;23;20782;-78
2021/01/25 07:50:54;;;;;;;24.75;14.70;;;2.50;98.30;;;;;;5066505;23;20255;-77
2021/01/25 07:52:58;;;;;;;27.15;14.38;;;2.60;98.30;;;;;;5074276;23;20202;-77
2021/01/25 07:55:16;;;;;;;30.02;16.30;;;2.60;98.30;;;;;;5074130;23;20250;-77
2021/01/25 07:57:43;;;;;;;22.63;16.70;;;2.40;98.30;;;;;;5074182;23;20211;-78
2021/01/25 07:59:50;;;;;;;28.50;17.17;;;2.40;98.30;;;;;;5073253;23;20211;-77
2021/01/25 08:01:59;;;;;;;23.00;16.10;;;2.30;98.30;;;;;;5074088;23;20196;-77
2021/01/25 08:04:05;;;;;;;21.27;15.15;;;2.20;98.30;;;;;;5073964;23;20235;-77
2021/01/25 08:06:16;;;;;;;20.48;15.55;;;2.20;98.30;;;;;;5073763;23;20208;-77
2021/01/25 08:08:28;;;;;;;24.08;16.73;;;2.20;98.30;;;;;;5073602;23;20210;-77
2021/01/25 08:10:32;;;;;;;23.35;17.08;;;2.30;98.30;;;;;;5073597;23;20211;-77
2021/01/25 08:12:39;;;;;;;24.05;16.77;;;2.30;98.30;;;;;;5073859;23;20204;-80
2021/01/25 08:14:59;;;;;;;30.83;17.83;;;2.40;98.30;;;;;;5073518;23;20203;-78
2021/01/25 08:17:06;;;;;;;25.40;16.05;;;2.40;98.30;;;;;;5075241;23;20203;-78
2021/01/25 08:19:14;;;;;;;29.63;17.15;;;2.40;98.30;;;;;;5075346;23;20219;-78
2021/01/25 08:21:29;;;;;;;30.40;16.08;;;2.50;98.30;;;;;;5067866;23;20259;-79
2021/01/25 08:23:39;;;;;;;21.58;17.38;;;2.40;98.30;;;;;;5063106;23;20535;-78
2021/01/25 08:25:52;;;;;;;26.38;15.18;;;2.30;98.30;;;;;;5073198;23;20204;-79
2021/01/25 08:28:00;;;;;;;28.35;17.33;;;2.30;98.30;;;;;;5065510;23;20223;-78
2021/01/25 08:30:06;;;;;;;32.28;15.10;;;2.20;98.30;;;;;;5071986;23;20195;-78
2021/01/25 08:32:14;;;;;;;23.95;16.48;;;2.20;98.30;;;;;;5075175;23;20205;-78
2021/01/25 08:34:24;;;;;;;35.17;17.38;;;2.20;98.30;;;;;;5075454;23;20206;-78
2021/01/25 08:39:18;;;;;;;38.47;19.65;;;2.00;98.30;;;;;;5065477;23;20666;-79
2021/01/25 08:42:22;;;;;;;39.08;19.23;;;1.90;98.30;;;;;;5067247;23;20211;-79
2021/01/25 08:48:15;;;;;;;42.33;20.00;;;1.70;98.30;;;;;;4978376;23;20344;-79
2021/01/25 08:50:25;;;;;;;42.63;17.60;;;1.60;98.30;;;;;;4977633;23;20203;-79
2021/01/25 08:52:29;;;;;;;51.10;20.02;;;1.60;98.30;;;;;;5019400;23;20261;-78
2021/01/25 08:54:34;;;;;;;48.25;20.80;;;1.50;98.30;;;;;;5075352;23;20283;-78
2021/01/25 08:56:38;;;;;;;29.10;17.83;;;1.50;98.30;;;;;;5075460;23;20726;-78
2021/01/25 08:58:44;;;;;;;29.95;17.98;;;1.50;98.30;;;;;;5075590;23;20204;-79
2021/01/25 09:00:48;;;;;;;37.70;18.83;;;1.50;98.30;;;;;;5067533;23;20215;-78
2021/01/25 09:02:59;;;;;;;29.13;18.20;;;1.50;98.30;;;;;;5075823;23;20262;-79
2021/01/25 09:05:02;;;;;;;77.28;24.92;;;1.60;98.30;;;;;;5075901;23;20226;-79
2021/01/25 09:07:12;;;;;;;67.30;22.25;;;1.70;98.30;;;;;;5075302;23;20537;-78
2021/01/25 09:09:14;;;;;;;59.33;23.80;;;1.70;98.30;;;;;;5075205;23;20196;-78
2021/01/25 09:11:16;;;;;;;46.40;22.10;;;1.70;98.30;;;;;;5067146;23;20300;-78
2021/01/25 09:13:19;;;;;;;29.38;17.77;;;1.50;98.30;;;;;;5067240;23;20278;-79
2021/01/25 09:15:21;;;;;;;28.23;17.05;;;1.50;98.30;;;;;;5075586;23;20204;-78
2021/01/25 09:17:24;;;;;;;29.42;17.65;;;1.50;98.30;;;;;;5067031;23;20294;-78
2021/01/25 09:19:27;;;;;;;28.63;16.10;;;1.50;98.30;;;;;;5074896;23;20571;-78
2021/01/25 09:21:29;;;;;;;31.50;17.58;;;1.50;98.30;;;;;;5075861;23;20279;-79
2021/01/25 09:23:34;;;;;;;27.27;17.27;;;1.60;98.30;;;;;;5075585;23;20204;-78
2021/01/25 09:25:36;;;;;;;22.20;15.63;;;1.60;98.30;;;;;;5067314;23;20240;-78
2021/01/25 09:27:39;;;;;;;22.20;16.08;;;1.60;98.30;;;;;;5074627;23;20235;-79
2021/01/25 09:29:41;;;;;;;33.78;17.52;;;1.60;98.30;;;;;;5073981;23;20695;-79
2021/01/25 09:31:43;;;;;;;25.52;16.25;;;1.60;98.30;;;;;;5067320;23;20239;-79
2021/01/25 09:33:46;;;;;;;33.60;18.80;;;1.60;98.30;;;;;;5074515;23;20287;-79
2021/01/25 09:35:48;;;;;;;33.30;17.67;;;1.60;98.30;;;;;;5074888;23;20236;-79
2021/01/25 09:37:51;;;;;;;35.67;20.08;;;1.60;98.30;;;;;;5075113;23;20204;-79
2021/01/25 09:39:54;;;;;;;28.52;16.33;;;1.70;98.30;;;;;;5074696;23;20231;-78
2021/01/25 09:41:59;;;;;;;29.60;16.88;;;1.70;98.30;;;;;;5067068;23;20212;-79
2021/01/25 09:44:01;;;;;;;23.45;15.32;;;1.70;98.30;;;;;;5074730;23;20315;-79
2021/01/25 09:46:03;;;;;;;22.98;15.10;;;1.70;98.30;;;;;;5074674;23;20201;-79
2021/01/25 09:48:06;;;;;;;21.90;14.75;;;1.60;98.30;;;;;;5074960;23;20200;-79
2021/01/25 09:50:12;;;;;;;18.63;13.10;;;1.60;98.30;;;;;;5074399;23;20204;-79
2021/01/25 09:52:15;;;;;;;21.13;13.10;;;1.70;98.30;;;;;;5074948;23;20228;-79
2021/01/25 09:54:18;;;;;;;17.65;11.77;;;1.80;98.30;;;;;;5065837;23;20308;-78
2021/01/25 09:56:35;;;;;;;19.00;12.23;;;1.70;98.30;;;;;;5082038;23;20208;-79
2021/01/25 09:58:54;;;;;;;18.58;12.77;;;1.80;98.30;;;;;;5087396;23;20200;-79
2021/01/25 10:00:56;;;;;;;20.77;13.63;;;1.80;98.30;;;;;;5080371;23;20525;-80
2021/01/25 10:02:59;;;;;;;23.50;12.95;;;1.80;98.30;;;;;;5080587;23;20207;-79
2021/01/25 10:05:01;;;;;;;25.13;13.65;;;1.80;98.30;;;;;;5089475;23;20208;-79
2021/01/25 10:07:04;;;;;;;22.15;14.10;;;1.80;98.30;;;;;;5088173;23;20227;-79
2021/01/25 10:09:15;;;;;;;40.35;15.43;;;1.80;98.30;;;;;;5090648;23;20235;-79
2021/01/25 10:11:18;;;;;;;23.25;13.93;;;1.80;98.30;;;;;;5090560;23;20855;-80
2021/01/25 10:13:20;;;;;;;24.58;15.05;;;1.80;98.30;;;;;;5077963;23;20243;-79
2021/01/25 10:15:24;;;;;;;23.65;14.13;;;1.80;98.30;;;;;;5074883;23;20219;-79
2021/01/25 10:17:29;;;;;;;24.20;17.38;;;1.80;98.30;;;;;;5079634;23;20283;-79
2021/01/25 10:19:31;;;;;;;24.42;16.02;;;1.80;98.30;;;;;;5082478;23;20684;-79
2021/01/25 10:21:33;;;;;;;25.27;16.42;;;1.80;98.30;;;;;;5073450;23;20207;-79
2021/01/25 10:23:35;;;;;;;28.42;16.23;;;1.70;98.30;;;;;;5084700;23;20203;-79
2021/01/25 10:25:38;;;;;;;24.88;16.60;;;1.70;98.30;;;;;;5087168;23;20606;-79
2021/01/25 10:27:41;;;;;;;69.28;45.13;;;1.70;98.30;;;;;;5086324;23;20556;-79
2021/01/25 10:29:46;;;;;;;24.88;17.35;;;1.70;98.30;;;;;;5078405;23;20205;-80
2021/01/25 10:31:51;;;;;;;25.00;16.67;;;1.80;98.30;;;;;;5085934;23;20196;-79
2021/01/25 10:33:53;;;;;;;23.25;16.00;;;1.70;98.30;;;;;;5085763;23;20200;-79
2021/01/25 10:35:56;;;;;;;25.80;17.02;;;1.70;98.30;;;;;;5085301;23;20208;-79
2021/01/25 10:37:59;;;;;;;24.00;16.67;;;1.70;98.30;;;;;;5085335;23;20214;-79
2021/01/25 10:40:01;;;;;;;21.35;15.65;;;1.90;98.30;;;;;;5086308;23;20197;-79
2021/01/25 10:42:05;;;;;;;21.75;15.10;;;2.00;98.30;;;;;;5081229;23;20200;-79
2021/01/25 10:44:08;;;;;;;24.73;15.35;;;2.10;98.30;;;;;;5085996;23;20215;-79
2021/01/25 10:46:14;;;;;;;27.15;17.27;;;2.00;98.30;;;;;;5084146;23;20231;-79
2021/01/25 10:48:16;;;;;;;28.63;18.23;;;2.10;98.30;;;;;;5082402;23;20208;-79
2021/01/25 10:50:18;;;;;;;26.05;15.85;;;2.10;98.30;;;;;;5084677;23;20276;-79
2021/01/25 10:52:23;;;;;;;26.73;17.05;;;2.00;98.30;;;;;;5085534;23;20252;-79